createdAt,value
2023-01-19T00:00:23.685Z,98520.06
2023-01-19T00:03:26.032Z,98522.28
2023-01-19T00:06:28.493Z,98522.28
2023-01-19T00:09:33.580Z,98529.59
2023-01-19T00:12:35.931Z,98533.13
2023-01-19T00:15:38.294Z,98518.03
2023-01-19T00:18:40.796Z,98514.59
2023-01-19T00:21:43.106Z,98526.41
2023-01-19T00:24:46.163Z,98523.97
2023-01-19T00:27:49.554Z,98535.56
2023-01-19T00:30:52.300Z,98518.78
2023-01-19T00:33:54.839Z,98524.03
2023-01-19T00:36:57.130Z,98524.38
2023-01-19T00:39:59.418Z,98518.59
2023-01-19T00:43:02.166Z,98525.19
2023-01-19T00:46:04.641Z,98531.06
2023-01-19T00:49:07.010Z,98518.63
2023-01-19T00:52:09.371Z,98520.91
2023-01-19T00:55:14.289Z,98528.00
2023-01-19T00:58:16.657Z,98513.97
2023-01-19T01:01:19.012Z,98503.19
2023-01-19T01:04:21.352Z,98513.47
2023-01-19T01:07:24.516Z,98504.97
2023-01-19T01:10:28.995Z,98520.38
2023-01-19T01:13:31.676Z,98502.88
2023-01-19T01:16:34.257Z,98499.94
2023-01-19T01:19:37.475Z,98493.03
2023-01-19T01:22:39.733Z,98492.22
2023-01-19T01:25:42.693Z,98492.63
2023-01-19T01:28:44.926Z,98500.38
2023-01-19T01:31:47.310Z,98503.13
2023-01-19T01:34:49.666Z,98509.44
2023-01-19T01:37:51.963Z,98496.63
2023-01-19T01:40:54.274Z,98482.03
2023-01-19T01:44:01.905Z,98490.09
2023-01-19T01:47:04.750Z,98485.84
2023-01-19T01:50:14.578Z,98497.09
2023-01-19T01:53:16.859Z,98495.47
2023-01-19T01:56:22.334Z,98500.84
2023-01-19T01:59:40.802Z,98504.34
2023-01-19T02:02:52.323Z,98525.88
2023-01-19T02:05:59.352Z,98533.94
2023-01-19T02:09:27.271Z,98530.78
2023-01-19T02:12:48.016Z,98529.09
2023-01-19T02:15:55.630Z,98503.00
2023-01-19T02:18:58.235Z,98467.22
2023-01-19T02:22:46.855Z,98473.91
2023-01-19T02:25:49.493Z,98492.94
2023-01-19T02:28:58.871Z,98534.16
2023-01-19T02:32:02.449Z,98546.13
2023-01-19T02:35:05.475Z,98559.25
2023-01-19T02:38:07.960Z,98543.53
2023-01-19T02:41:12.341Z,98531.72
2023-01-19T02:44:15.079Z,98498.16
2023-01-19T02:47:17.413Z,98497.78
2023-01-19T02:50:46.022Z,98500.47
2023-01-19T02:53:57.670Z,98495.41
2023-01-19T02:57:15.133Z,98513.47
2023-01-19T03:00:27.323Z,98529.47
2023-01-19T03:03:39.025Z,98528.38
2023-01-19T03:06:44.879Z,98528.03
2023-01-19T03:09:55.570Z,98533.19
2023-01-19T03:13:04.156Z,98536.53
2023-01-19T03:16:48.834Z,98546.38
2023-01-19T03:19:52.290Z,98549.13
2023-01-19T03:23:03.342Z,98567.66
2023-01-19T03:26:09.801Z,98554.31
2023-01-19T03:29:14.332Z,98541.69
2023-01-19T03:32:18.243Z,98532.50
2023-01-19T03:35:23.070Z,98518.34
2023-01-19T03:38:26.372Z,98485.06
2023-01-19T03:41:29.955Z,98480.38
2023-01-19T03:44:33.782Z,98487.03
2023-01-19T03:47:36.573Z,98477.06
2023-01-19T03:50:39.049Z,98482.44
2023-01-19T03:53:41.747Z,98497.72
2023-01-19T03:56:44.963Z,98499.56
2023-01-19T03:59:47.934Z,98526.75
2023-01-19T04:02:50.333Z,98528.69
2023-01-19T04:05:52.645Z,98531.44
2023-01-19T04:08:55.030Z,98522.16
2023-01-19T04:11:57.312Z,98534.69
2023-01-19T04:14:59.794Z,98513.91
2023-01-19T04:18:02.141Z,98514.72
2023-01-19T04:21:07.124Z,98523.88
2023-01-19T04:24:10.206Z,98505.84
2023-01-19T04:27:12.453Z,98504.94
2023-01-19T04:30:15.167Z,98528.13
2023-01-19T04:33:17.749Z,98522.94
2023-01-19T04:36:19.999Z,98524.53
2023-01-19T04:39:23.217Z,98527.66
2023-01-19T04:42:25.468Z,98507.38
2023-01-19T04:45:27.803Z,98505.19
2023-01-19T04:48:30.106Z,98508.19
2023-01-19T04:51:32.430Z,98503.34
2023-01-19T04:54:34.845Z,98509.66
2023-01-19T04:57:37.191Z,98495.91
2023-01-19T05:00:39.502Z,98513.22
2023-01-19T05:03:41.802Z,98530.06
2023-01-19T05:06:44.131Z,98520.22
2023-01-19T05:09:46.346Z,98526.72
2023-01-19T05:12:48.756Z,98524.50
2023-01-19T05:15:51.197Z,98519.84
2023-01-19T05:18:53.551Z,98551.38
2023-01-19T05:21:55.832Z,98568.16
2023-01-19T05:24:58.404Z,98590.34
2023-01-19T05:28:00.677Z,98590.00
2023-01-19T05:31:03.084Z,98585.13
2023-01-19T05:34:05.644Z,98594.66
2023-01-19T05:37:07.932Z,98591.09
2023-01-19T05:40:11.278Z,98594.75
2023-01-19T05:43:14.611Z,98587.84
2023-01-19T05:46:17.116Z,98560.47
2023-01-19T05:49:19.419Z,98542.00
2023-01-19T05:52:22.009Z,98561.53
2023-01-19T05:55:24.382Z,98556.38
2023-01-19T05:58:26.697Z,98537.22
2023-01-19T06:01:29.124Z,98530.78
2023-01-19T06:04:31.436Z,98540.16
2023-01-19T06:07:33.733Z,98565.56
2023-01-19T06:10:36.094Z,98550.75
2023-01-19T06:13:41.364Z,98541.56
2023-01-19T06:16:47.628Z,98513.53
2023-01-19T06:19:49.984Z,98543.88
2023-01-19T06:22:52.545Z,98529.19
2023-01-19T06:25:57.452Z,98511.47
2023-01-19T06:28:59.775Z,98534.19
2023-01-19T06:32:02.084Z,98515.25
2023-01-19T06:35:04.829Z,98530.97
2023-01-19T06:38:08.305Z,98540.91
2023-01-19T06:41:10.547Z,98566.03
2023-01-19T06:44:12.845Z,98566.25
2023-01-19T06:47:16.586Z,98581.09
2023-01-19T06:50:18.950Z,98567.09
2023-01-19T06:53:22.325Z,98570.06
2023-01-19T06:56:24.590Z,98567.63
2023-01-19T06:59:27.035Z,98567.06
2023-01-19T07:02:29.505Z,98562.59
2023-01-19T07:05:31.954Z,98567.16
2023-01-19T07:08:36.033Z,98561.31
2023-01-19T07:11:38.401Z,98572.56
2023-01-19T07:14:41.025Z,98578.09
2023-01-19T07:17:43.841Z,98555.59
2023-01-19T07:20:49.177Z,98555.72
2023-01-19T07:23:52.350Z,98557.88
2023-01-19T07:26:54.590Z,98568.41
2023-01-19T07:29:57.119Z,98576.03
2023-01-19T07:33:00.095Z,98577.63
2023-01-19T07:36:02.682Z,98591.56
2023-01-19T07:39:04.880Z,98584.56
2023-01-19T07:42:07.425Z,98581.75
2023-01-19T07:45:12.037Z,98580.38
2023-01-19T07:48:14.706Z,98579.13
2023-01-19T07:51:19.750Z,98600.84
2023-01-19T07:54:22.362Z,98610.72
2023-01-19T07:57:24.647Z,98606.22
2023-01-19T08:00:27.104Z,98609.69
2023-01-19T08:03:29.306Z,98592.91
2023-01-19T08:06:36.098Z,98597.28
2023-01-19T08:09:38.328Z,98593.59
2023-01-19T08:12:42.020Z,98589.31
2023-01-19T08:15:44.640Z,98582.78
2023-01-19T08:18:46.885Z,98578.78
2023-01-19T08:21:49.137Z,98580.59
2023-01-19T08:24:51.922Z,98580.63
2023-01-19T08:27:55.427Z,98599.22
2023-01-19T08:30:57.950Z,98604.38
2023-01-19T08:34:00.410Z,98602.66
2023-01-19T08:37:02.766Z,98595.78
2023-01-19T08:40:05.699Z,98600.13
2023-01-19T08:43:17.597Z,98599.09
2023-01-19T08:46:21.927Z,98594.63
2023-01-19T08:49:24.292Z,98598.28
2023-01-19T08:52:26.741Z,98605.41
2023-01-19T08:55:29.736Z,98608.84
2023-01-19T08:58:32.034Z,98608.25
2023-01-19T09:01:34.333Z,98606.22
2023-01-19T09:04:36.736Z,98604.84
2023-01-19T09:07:39.033Z,98603.69
2023-01-19T09:10:47.037Z,98590.00
2023-01-19T09:13:49.864Z,98583.69
2023-01-19T09:16:52.317Z,98590.22
2023-01-19T09:19:54.654Z,98593.66
2023-01-19T09:23:00.180Z,98601.25
2023-01-19T09:26:04.570Z,98595.25
2023-01-19T09:29:06.891Z,98587.88
2023-01-19T09:32:11.170Z,98586.91
2023-01-19T09:35:13.879Z,98598.34
2023-01-19T09:38:16.989Z,98603.97
2023-01-19T09:41:21.996Z,98606.19
2023-01-19T09:44:30.575Z,98605.91
2023-01-19T09:47:33.548Z,98602.81
2023-01-19T09:50:39.579Z,98589.63
2023-01-19T09:53:56.522Z,98592.72
2023-01-19T09:56:58.907Z,98593.38
2023-01-19T10:00:01.353Z,98607.41
2023-01-19T10:03:23.901Z,98604.88
2023-01-19T10:06:27.017Z,98613.81
2023-01-19T10:10:10.837Z,98632.00
2023-01-19T10:13:22.062Z,98641.22
2023-01-19T10:16:33.984Z,98625.59
2023-01-19T10:19:38.389Z,98609.03
2023-01-19T10:22:43.423Z,98617.09
2023-01-19T10:25:46.346Z,98629.13
2023-01-19T10:28:50.769Z,98619.16
2023-01-19T10:32:07.396Z,98622.03
2023-01-19T10:35:21.909Z,98625.50
2023-01-19T10:38:24.655Z,98631.38
2023-01-19T10:41:32.197Z,98632.63
2023-01-19T10:44:37.023Z,98652.97
2023-01-19T10:47:39.964Z,98643.31
2023-01-19T10:50:42.261Z,98640.25
2023-01-19T10:53:54.638Z,98631.16
2023-01-19T10:57:03.578Z,98633.00
2023-01-19T11:00:07.598Z,98637.72
2023-01-19T11:03:28.868Z,98637.13
2023-01-19T11:06:33.123Z,98636.22
2023-01-19T11:09:35.551Z,98630.81
2023-01-19T11:12:43.526Z,98638.63
2023-01-19T11:15:57.602Z,98623.13
2023-01-19T11:19:02.155Z,98623.44
2023-01-19T11:22:27.039Z,98641.94
2023-01-19T11:25:32.415Z,98644.84
2023-01-19T11:28:37.879Z,98646.31
2023-01-19T11:31:40.522Z,98635.34
2023-01-19T11:34:42.857Z,98654.72
2023-01-19T11:37:45.177Z,98654.28
2023-01-19T11:40:53.263Z,98647.88
2023-01-19T11:44:23.424Z,98664.72
2023-01-19T11:47:30.805Z,98667.91
2023-01-19T11:50:45.722Z,98651.16
2023-01-19T11:53:52.114Z,98640.56
2023-01-19T11:56:54.723Z,98664.25
2023-01-19T12:00:03.497Z,98666.19
2023-01-19T12:03:37.997Z,98681.38
2023-01-19T12:06:47.897Z,98678.38
2023-01-19T12:09:54.792Z,98673.81
2023-01-19T12:12:57.548Z,98690.28
2023-01-19T12:16:03.341Z,98685.91
2023-01-19T12:19:11.401Z,98693.59
2023-01-19T12:22:15.957Z,98686.38
2023-01-19T12:25:23.241Z,98689.38
2023-01-19T12:28:31.805Z,98698.03
2023-01-19T12:31:35.228Z,98703.41
2023-01-19T12:34:41.538Z,98718.06
2023-01-19T12:37:45.367Z,98702.75
2023-01-19T12:40:47.629Z,98715.59
2023-01-19T12:44:08.549Z,98726.06
2023-01-19T12:47:10.902Z,98730.00
2023-01-19T12:50:19.272Z,98716.63
2023-01-19T12:53:22.737Z,98732.97
2023-01-19T12:56:36.318Z,98736.19
2023-01-19T12:59:39.407Z,98737.81
2023-01-19T13:02:44.649Z,98740.47
2023-01-19T13:05:55.492Z,98760.72
2023-01-19T13:09:01.009Z,98769.34
2023-01-19T13:12:15.348Z,98778.78
2023-01-19T13:15:35.626Z,98794.31
2023-01-19T13:18:40.940Z,98794.66
2023-01-19T13:21:47.799Z,98791.38
2023-01-19T13:25:13.797Z,98804.19
2023-01-19T13:28:17.883Z,98804.19
2023-01-19T13:31:20.484Z,98812.44
2023-01-19T13:34:25.225Z,98816.25
2023-01-19T13:37:39.345Z,98818.75
2023-01-19T13:40:41.677Z,98826.69
2023-01-19T13:43:44.174Z,98831.53
2023-01-19T13:46:47.209Z,98849.69
2023-01-19T13:49:51.684Z,98843.03
2023-01-19T13:52:55.720Z,98835.97
2023-01-19T13:56:16.529Z,98856.06
2023-01-19T13:59:18.830Z,98854.78
2023-01-19T14:02:21.415Z,98851.94
2023-01-19T14:05:25.836Z,98864.47
2023-01-19T14:08:29.246Z,98872.19
2023-01-19T14:11:31.533Z,98866.59
2023-01-19T14:14:36.402Z,98861.50
2023-01-19T14:17:38.714Z,98852.81
2023-01-19T14:20:42.255Z,98858.44
2023-01-19T14:23:49.997Z,98850.94
2023-01-19T14:27:27.980Z,98839.28
2023-01-19T14:30:30.239Z,98865.09
2023-01-19T14:33:36.993Z,98873.66
2023-01-19T14:36:42.023Z,98874.19
2023-01-19T14:39:46.500Z,98881.97
2023-01-19T14:43:06.645Z,98890.13
2023-01-19T14:46:17.482Z,98887.38
2023-01-19T14:49:24.860Z,98905.66
2023-01-19T14:52:34.918Z,98907.91
2023-01-19T14:55:43.917Z,98905.63
2023-01-19T14:58:46.179Z,98921.47
2023-01-19T15:01:48.561Z,98921.94
2023-01-19T15:04:55.295Z,98953.94
2023-01-19T15:07:57.589Z,98964.38
2023-01-19T15:11:21.374Z,98972.63
2023-01-19T15:14:23.645Z,98979.13
2023-01-19T15:17:25.878Z,98975.81
2023-01-19T15:20:28.620Z,98966.72
2023-01-19T15:23:34.324Z,98962.41
2023-01-19T15:26:38.149Z,98946.75
2023-01-19T15:29:40.475Z,98930.72
2023-01-19T15:32:44.010Z,98956.34
2023-01-19T15:35:46.364Z,98955.22
2023-01-19T15:38:51.568Z,98958.50
2023-01-19T15:41:54.052Z,98975.50
2023-01-19T15:44:56.263Z,98966.56
2023-01-19T15:47:59.159Z,98977.81
2023-01-19T15:51:01.437Z,98990.31
2023-01-19T15:54:03.866Z,98998.16
2023-01-19T15:57:06.128Z,99003.59
2023-01-19T16:00:09.576Z,99009.28
2023-01-19T16:03:14.878Z,99037.03
2023-01-19T16:06:18.107Z,99055.00
2023-01-19T16:09:20.378Z,99066.09
2023-01-19T16:12:22.607Z,99053.16
2023-01-19T16:15:25.474Z,99050.59
2023-01-19T16:18:27.843Z,99045.44
2023-01-19T16:21:30.183Z,99073.78
2023-01-19T16:24:32.631Z,99067.69
2023-01-19T16:27:34.899Z,99080.06
2023-01-19T16:30:37.226Z,99087.19
2023-01-19T16:33:39.577Z,99092.50
2023-01-19T16:36:42.111Z,99100.78
2023-01-19T16:39:45.487Z,99091.03
2023-01-19T16:42:47.935Z,99112.91
2023-01-19T16:45:59.155Z,99115.28
2023-01-19T16:49:04.741Z,99112.50
2023-01-19T16:52:07.518Z,99116.63
2023-01-19T16:55:11.324Z,99123.97
2023-01-19T16:58:13.560Z,99141.78
2023-01-19T17:01:20.208Z,99149.41
2023-01-19T17:04:23.019Z,99141.09
2023-01-19T17:07:25.332Z,99148.13
2023-01-19T17:10:27.616Z,99161.75
2023-01-19T17:13:30.833Z,99154.84
2023-01-19T17:16:34.492Z,99149.84
2023-01-19T17:19:37.422Z,99165.22
2023-01-19T17:22:39.782Z,99153.03
2023-01-19T17:25:42.041Z,99150.66
2023-01-19T17:28:44.854Z,99163.13
2023-01-19T17:31:50.619Z,99166.38
2023-01-19T17:34:52.999Z,99180.16
2023-01-19T17:37:56.057Z,99174.91
2023-01-19T17:40:58.365Z,99190.00
2023-01-19T17:44:04.786Z,99195.50
2023-01-19T17:47:07.135Z,99211.75
2023-01-19T17:50:10.159Z,99206.13
2023-01-19T17:53:12.609Z,99210.03
2023-01-19T17:56:16.270Z,99207.00
2023-01-19T17:59:18.651Z,99196.94
2023-01-19T18:02:24.599Z,99206.81
2023-01-19T18:05:26.966Z,99200.97
2023-01-19T18:08:29.428Z,99210.47
2023-01-19T18:11:31.772Z,99211.06
2023-01-19T18:14:34.118Z,99222.41
2023-01-19T18:17:36.474Z,99209.66
2023-01-19T18:20:40.128Z,99221.41
2023-01-19T18:23:46.107Z,99227.09
2023-01-19T18:26:48.544Z,99228.25
2023-01-19T18:29:50.881Z,99228.09
2023-01-19T18:32:53.251Z,99229.81
2023-01-19T18:35:55.538Z,99239.53
2023-01-19T18:38:57.994Z,99238.72
2023-01-19T18:42:00.732Z,99254.75
2023-01-19T18:45:03.319Z,99258.56
2023-01-19T18:48:05.970Z,99245.22
2023-01-19T18:51:10.135Z,99259.78
2023-01-19T18:54:13.295Z,99246.63
2023-01-19T18:57:17.984Z,99262.41
2023-01-19T19:00:20.771Z,99264.47
2023-01-19T19:03:23.460Z,99243.56
2023-01-19T19:06:27.135Z,99271.94
2023-01-19T19:09:29.607Z,99265.06
2023-01-19T19:12:32.126Z,99267.09
2023-01-19T19:15:34.483Z,99274.78
2023-01-19T19:18:37.791Z,99266.66
2023-01-19T19:21:40.461Z,99274.97
2023-01-19T19:24:42.799Z,99260.78
2023-01-19T19:27:47.879Z,99270.09
2023-01-19T19:30:52.642Z,99278.41
2023-01-19T19:33:56.148Z,99283.88
2023-01-19T19:37:00.367Z,99290.16
2023-01-19T19:40:03.967Z,99304.38
2023-01-19T19:43:06.395Z,99323.25
2023-01-19T19:46:11.516Z,99320.38
2023-01-19T19:49:14.389Z,99302.75
2023-01-19T19:52:17.418Z,99336.44
2023-01-19T19:55:19.728Z,99336.03
2023-01-19T19:58:22.003Z,99331.94
2023-01-19T20:01:29.039Z,99336.03
2023-01-19T20:04:32.404Z,99343.72
2023-01-19T20:07:34.749Z,99337.22
2023-01-19T20:10:38.106Z,99319.38
2023-01-19T20:13:42.484Z,99331.97
2023-01-19T20:16:47.863Z,99319.38
2023-01-19T20:19:50.415Z,99306.59
2023-01-19T20:22:53.090Z,99324.66
2023-01-19T20:25:55.480Z,99329.53
2023-01-19T20:29:03.176Z,99355.88
2023-01-19T20:32:05.560Z,99358.31
2023-01-19T20:35:08.251Z,99346.78
2023-01-19T20:38:10.691Z,99337.84
2023-01-19T20:41:13.543Z,99346.56
2023-01-19T20:44:22.155Z,99343.72
2023-01-19T20:47:25.445Z,99358.13
2023-01-19T20:50:27.829Z,99353.25
2023-01-19T20:53:31.481Z,99353.22
2023-01-19T20:56:33.750Z,99342.66
2023-01-19T20:59:38.214Z,99351.41
2023-01-19T21:02:40.627Z,99338.84
2023-01-19T21:05:43.042Z,99334.78
2023-01-19T21:08:46.037Z,99346.16
2023-01-19T21:11:48.386Z,99349.19
2023-01-19T21:14:50.710Z,99344.53
2023-01-19T21:17:53.013Z,99345.34
2023-01-19T21:20:57.557Z,99337.63
2023-01-19T21:24:02.999Z,99366.22
2023-01-19T21:27:05.332Z,99369.66
2023-01-19T21:30:08.453Z,99366.44
2023-01-19T21:33:11.076Z,99342.91
2023-01-19T21:36:13.453Z,99354.47
2023-01-19T21:39:17.363Z,99368.06
2023-01-19T21:42:19.825Z,99402.69
2023-01-19T21:45:23.115Z,99435.34
2023-01-19T21:48:25.523Z,99464.16
2023-01-19T21:51:29.182Z,99469.44
2023-01-19T21:54:31.751Z,99454.63
2023-01-19T21:57:34.053Z,99451.19
2023-01-19T22:00:36.389Z,99427.66
2023-01-19T22:03:38.811Z,99424.84
2023-01-19T22:06:44.067Z,99425.44
2023-01-19T22:09:46.747Z,99429.31
2023-01-19T22:12:49.073Z,99442.66
2023-01-19T22:15:59.474Z,99418.97
2023-01-19T22:19:02.415Z,99399.69
2023-01-19T22:22:04.826Z,99396.63
2023-01-19T22:25:07.395Z,99411.06
2023-01-19T22:28:09.709Z,99431.53
2023-01-19T22:31:17.803Z,99438.63
2023-01-19T22:34:20.227Z,99441.06
2023-01-19T22:37:22.493Z,99426.66
2023-01-19T22:40:24.731Z,99425.22
2023-01-19T22:43:26.967Z,99418.53
2023-01-19T22:46:32.238Z,99428.09
2023-01-19T22:49:34.566Z,99425.84
2023-01-19T22:52:36.900Z,99415.31
2023-01-19T22:55:39.170Z,99412.66
2023-01-19T22:58:44.185Z,99413.50
2023-01-19T23:01:47.228Z,99397.06
2023-01-19T23:04:49.796Z,99376.97
2023-01-19T23:07:52.103Z,99380.66
2023-01-19T23:10:54.525Z,99385.09
2023-01-19T23:13:58.378Z,99382.66
2023-01-19T23:17:00.791Z,99374.34
2023-01-19T23:20:05.264Z,99368.03
2023-01-19T23:23:07.576Z,99369.66
2023-01-19T23:26:15.443Z,99373.31
2023-01-19T23:29:18.212Z,99378.19
2023-01-19T23:32:20.671Z,99383.44
2023-01-19T23:35:22.927Z,99397.19
2023-01-19T23:38:25.205Z,99401.28
2023-01-19T23:41:29.821Z,99404.03
2023-01-19T23:44:32.144Z,99415.66
2023-01-19T23:47:35.897Z,99402.69
2023-01-19T23:50:40.818Z,99390.78
2023-01-19T23:53:43.481Z,99401.09
2023-01-19T23:56:45.862Z,99389.13
2023-01-19T23:59:48.277Z,99392.97
